Time;durP1;ratioP1;P1;durP2;ratioP2;P2;SDS_P1;SDS_P2;PMS_P1;PMS_P2;Temp;Humidity;BMP_temperature;BMP_pressure;BME280_temperature;BME280_humidity;BME280_pressure;Samples;Min_cycle;Max_cycle;Signal;HPM_P1;HPM_P2
2022/06/14 00:03:09;;;;;;;;;;;20.30;47.80;;;;;;5165101;27;19971;-45
2022/06/14 00:05:35;;;;;;;;;;;19.80;48.10;;;;;;5162597;27;20417;-46
2022/06/14 00:08:01;;;;;;;;;;;19.90;48.90;;;;;;5149375;27;20206;-45
2022/06/14 00:10:27;;;;;;;;;;;21.00;47.50;;;;;;5162893;27;21298;-47
2022/06/14 00:12:52;;;;;;;;;;;21.80;45.30;;;;;;5162439;27;19922;-45
2022/06/14 00:15:18;;;;;;;;;;;20.40;47.80;;;;;;5167098;27;19926;-50
2022/06/14 00:17:44;;;;;;;;;;;19.90;48.30;;;;;;5160670;27;19951;-44
2022/06/14 00:20:10;;;;;;;;;;;19.60;48.30;;;;;;5162389;27;19952;-53
2022/06/14 00:22:36;;;;;;;;;;;20.40;48.90;;;;;;5167493;27;20009;-50
2022/06/14 00:25:02;;;;;;;;;;;21.50;46.30;;;;;;5162397;27;19934;-45
2022/06/14 00:27:28;;;;;;;;;;;21.10;46.40;;;;;;5167914;27;19976;-49
2022/06/14 00:29:54;;;;;;;;;;;20.10;48.30;;;;;;5162304;27;20107;-45
2022/06/14 00:32:19;;;;;;;;;;;19.60;48.50;;;;;;5162195;27;20018;-46
2022/06/14 00:34:45;;;;;;;;;;;20.40;48.90;;;;;;5165500;27;19962;-47
2022/06/14 00:37:15;;;;;;;;;;;21.50;46.50;;;;;;5161032;27;19958;-47
2022/06/14 00:39:41;;;;;;;;;;;21.30;46.20;;;;;;5161664;27;19938;-45
2022/06/14 00:42:25;;;;;;;;;;;20.20;47.90;;;;;;5167722;27;19923;-45
2022/06/14 00:45:00;;;;;;;;;;;19.60;48.70;;;;;;5162221;27;20401;-45
2022/06/14 00:47:25;;;;;;;;;;;20.30;49.40;;;;;;5162313;27;20280;-45
2022/06/14 00:49:53;;;;;;;;;;;21.50;46.60;;;;;;5167528;27;19937;-48
2022/06/14 00:52:26;;;;;;;;;;;21.90;45.50;;;;;;5161053;27;20026;-57
2022/06/14 00:54:53;;;;;;;;;;;22.20;44.80;;;;;;5146084;27;19926;-56
2022/06/14 00:57:21;;;;;;;;;;;22.00;45.00;;;;;;5163886;27;19923;-58
2022/06/14 00:59:46;;;;;;;;;;;21.90;45.10;;;;;;5161675;27;20977;-57
2022/06/14 01:02:13;;;;;;;;;;;21.80;45.20;;;;;;5167520;27;19949;-56
2022/06/14 01:04:39;;;;;;;;;;;21.80;45.20;;;;;;5162241;27;20446;-56
2022/06/14 01:07:06;;;;;;;;;;;21.90;45.30;;;;;;5147283;27;19923;-56
2022/06/14 01:09:36;;;;;;;;;;;21.80;45.30;;;;;;5171336;27;19923;-57
2022/06/14 01:12:03;;;;;;;;;;;21.80;45.20;;;;;;5163419;27;19949;-57
2022/06/14 01:14:39;;;;;;;;;;;21.80;45.10;;;;;;5146177;27;19947;-55
2022/06/14 01:17:04;;;;;;;;;;;21.90;44.80;;;;;;5170978;27;20379;-56
2022/06/14 01:19:30;;;;;;;;;;;21.90;44.80;;;;;;5165402;27;19930;-58
2022/06/14 01:22:02;;;;;;;;;;;22.00;44.50;;;;;;5170319;27;19927;-55
2022/06/14 01:24:28;;;;;;;;;;;22.10;44.40;;;;;;5169071;27;19922;-57
2022/06/14 01:26:54;;;;;;;;;;;22.20;44.20;;;;;;5165149;27;19922;-57
2022/06/14 01:29:20;;;;;;;;;;;22.30;43.90;;;;;;5150016;27;20958;-58
2022/06/14 01:31:46;;;;;;;;;;;22.30;43.60;;;;;;5163746;27;19922;-56
2022/06/14 01:34:11;;;;;;;;;;;22.30;43.50;;;;;;5164838;27;19926;-58
2022/06/14 01:36:38;;;;;;;;;;;22.30;43.30;;;;;;5170472;27;19995;-57
2022/06/14 01:39:05;;;;;;;;;;;22.30;43.30;;;;;;5146552;27;20399;-56
2022/06/14 01:41:43;;;;;;;;;;;22.10;43.60;;;;;;5164997;27;20404;-55
2022/06/14 01:44:15;;;;;;;;;;;22.10;43.80;;;;;;5170278;27;19922;-56
2022/06/14 01:46:43;;;;;;;;;;;22.00;44.10;;;;;;5164543;27;20043;-57
2022/06/14 01:52:03;;;;;;;;;;;22.00;44.50;;;;;;5151038;27;19978;-57
2022/06/14 01:54:40;;;;;;;;;;;22.00;44.40;;;;;;5146194;27;20009;-58
2022/06/14 01:57:11;;;;;;;;;;;21.90;44.50;;;;;;5146350;27;20711;-55
2022/06/14 01:59:47;;;;;;;;;;;21.90;44.60;;;;;;5170389;27;19961;-56
2022/06/14 02:02:27;;;;;;;;;;;21.90;44.60;;;;;;5164975;27;19970;-57
2022/06/14 02:05:02;;;;;;;;;;;21.90;44.70;;;;;;5145655;27;20184;-55
2022/06/14 02:07:46;;;;;;;;;;;21.90;44.60;;;;;;5167607;27;20228;-59
2022/06/14 02:10:27;;;;;;;;;;;21.80;44.80;;;;;;5163832;27;19926;-57
2022/06/14 02:13:04;;;;;;;;;;;21.80;44.80;;;;;;5164301;27;20067;-56
2022/06/14 02:15:29;;;;;;;;;;;21.90;44.60;;;;;;5151396;27;19923;-55
2022/06/14 02:18:13;;;;;;;;;;;22.00;44.60;;;;;;5164200;27;19929;-58
2022/06/14 02:20:53;;;;;;;;;;;22.00;44.50;;;;;;5164347;27;20459;-58
2022/06/14 02:23:19;;;;;;;;;;;21.90;44.70;;;;;;5150878;27;19927;-58
2022/06/14 02:25:49;;;;;;;;;;;22.00;44.70;;;;;;5161883;27;19930;-55
2022/06/14 02:28:26;;;;;;;;;;;21.80;44.80;;;;;;5145010;27;19927;-56
2022/06/14 02:30:56;;;;;;;;;;;22.00;44.70;;;;;;5169432;27;19923;-57
2022/06/14 02:33:25;;;;;;;;;;;22.00;44.40;;;;;;5145459;27;19927;-57
2022/06/14 02:35:57;;;;;;;;;;;21.90;44.30;;;;;;5164327;27;20401;-57
2022/06/14 02:38:25;;;;;;;;;;;22.00;44.30;;;;;;5151567;27;19929;-54
2022/06/14 02:40:59;;;;;;;;;;;22.00;44.10;;;;;;5145521;27;19929;-58
2022/06/14 02:43:36;;;;;;;;;;;22.10;44.00;;;;;;5162109;27;20017;-56
2022/06/14 02:46:04;;;;;;;;;;;22.10;43.80;;;;;;5150002;27;20326;-54
2022/06/14 02:48:33;;;;;;;;;;;22.00;43.90;;;;;;5144532;27;19926;-56
2022/06/14 02:51:00;;;;;;;;;;;22.00;43.90;;;;;;5149688;27;19933;-57
2022/06/14 02:53:28;;;;;;;;;;;22.10;43.70;;;;;;5146899;27;20017;-57
2022/06/14 02:55:56;;;;;;;;;;;22.10;43.80;;;;;;5163702;27;20374;-56
2022/06/14 02:58:22;;;;;;;;;;;22.10;43.80;;;;;;5150267;27;20013;-55
2022/06/14 03:01:11;;;;;;;;;;;22.10;43.80;;;;;;5162262;27;19969;-57
2022/06/14 03:03:38;;;;;;;;;;;21.90;44.20;;;;;;5147916;27;19930;-57
2022/06/14 03:06:07;;;;;;;;;;;21.80;44.40;;;;;;5168456;27;20441;-57
2022/06/14 03:08:47;;;;;;;;;;;21.80;44.40;;;;;;5163275;27;19929;-57
2022/06/14 03:11:24;;;;;;;;;;;21.80;44.60;;;;;;5144837;27;19923;-56
2022/06/14 03:13:53;;;;;;;;;;;21.80;44.50;;;;;;5148412;27;19922;-57
2022/06/14 03:16:24;;;;;;;;;;;21.80;44.50;;;;;;5144520;27;20497;-56
2022/06/14 03:18:56;;;;;;;;;;;21.80;44.60;;;;;;5162540;27;19929;-56
2022/06/14 03:21:26;;;;;;;;;;;21.70;44.80;;;;;;5166913;27;19927;-55
2022/06/14 03:24:00;;;;;;;;;;;21.80;44.80;;;;;;5162548;27;19933;-58
2022/06/14 03:26:44;;;;;;;;;;;21.70;44.90;;;;;;5162823;27;19923;-58
2022/06/14 03:29:11;;;;;;;;;;;21.80;44.70;;;;;;5167986;27;19948;-58
2022/06/14 03:31:57;;;;;;;;;;;21.70;44.70;;;;;;5163118;27;19932;-56
2022/06/14 03:34:35;;;;;;;;;;;21.80;44.70;;;;;;5162665;27;19928;-57
2022/06/14 03:37:01;;;;;;;;;;;21.50;45.00;;;;;;5168051;27;19931;-55
2022/06/14 03:39:31;;;;;;;;;;;21.60;44.80;;;;;;5160551;27;20017;-56
2022/06/14 03:41:58;;;;;;;;;;;21.70;44.80;;;;;;5143508;27;19922;-58
2022/06/14 03:44:25;;;;;;;;;;;21.80;44.60;;;;;;5168069;27;20386;-58
2022/06/14 03:47:03;;;;;;;;;;;21.80;44.30;;;;;;5162834;27;19923;-57
2022/06/14 03:49:28;;;;;;;;;;;21.90;44.10;;;;;;5142946;27;20309;-56
2022/06/14 03:51:57;;;;;;;;;;;21.90;44.00;;;;;;5147925;27;20487;-57
2022/06/14 03:54:42;;;;;;;;;;;21.80;44.10;;;;;;5162712;27;19923;-57
2022/06/14 03:57:11;;;;;;;;;;;21.90;43.90;;;;;;5160539;27;20694;-57
2022/06/14 03:59:54;;;;;;;;;;;22.00;43.70;;;;;;5167289;27;19933;-57
2022/06/14 04:02:52;;;;;;;;;;;22.00;43.60;;;;;;5162347;27;19954;-56
2022/06/14 04:05:10;;;;;;;;;;;21.90;43.90;;;;;;5162429;27;19922;-56
2022/06/14 04:07:38;;;;;;;;;;;21.90;44.10;;;;;;5148937;27;19929;-58
2022/06/14 04:10:15;;;;;;;;;;;21.80;44.20;;;;;;5143374;27;20062;-56
2022/06/14 04:12:44;;;;;;;;;;;21.80;44.40;;;;;;5143893;27;20457;-57
2022/06/14 04:15:29;;;;;;;;;;;21.80;44.60;;;;;;5166071;27;20025;-59
2022/06/14 04:17:55;;;;;;;;;;;21.80;44.60;;;;;;5161604;27;20279;-57
2022/06/14 04:20:38;;;;;;;;;;;21.80;44.60;;;;;;5162004;27;19942;-58
2022/06/14 04:23:12;;;;;;;;;;;21.80;44.70;;;;;;5167556;27;20013;-56
2022/06/14 04:25:53;;;;;;;;;;;21.80;44.90;;;;;;5143676;27;20429;-54
2022/06/14 04:28:39;;;;;;;;;;;21.80;44.80;;;;;;5144094;27;19990;-57
2022/06/14 04:31:06;;;;;;;;;;;21.70;44.90;;;;;;5167448;27;19930;-58
2022/06/14 04:33:34;;;;;;;;;;;21.80;44.80;;;;;;5160346;27;19927;-58
2022/06/14 04:36:17;;;;;;;;;;;21.70;44.80;;;;;;5161122;27;19923;-56
2022/06/14 04:38:47;;;;;;;;;;;21.70;44.90;;;;;;5146988;27;19924;-56
2022/06/14 04:41:15;;;;;;;;;;;21.70;45.00;;;;;;5166355;27;20017;-55
2022/06/14 04:43:47;;;;;;;;;;;21.70;45.00;;;;;;5166313;27;19982;-57
2022/06/14 04:46:20;;;;;;;;;;;21.70;45.00;;;;;;5171962;27;20330;-56
2022/06/14 04:48:51;;;;;;;;;;;21.80;45.10;;;;;;5166328;27;19922;-58
2022/06/14 04:51:17;;;;;;;;;;;21.80;45.30;;;;;;5164939;27;19923;-56
2022/06/14 04:53:45;;;;;;;;;;;21.80;45.30;;;;;;5170049;27;20029;-57
2022/06/14 04:56:13;;;;;;;;;;;21.80;45.00;;;;;;5146498;27;20449;-58
2022/06/14 04:58:39;;;;;;;;;;;21.80;45.10;;;;;;5152736;27;19927;-57
2022/06/14 05:01:11;;;;;;;;;;;21.80;45.30;;;;;;5165982;27;19929;-58
2022/06/14 05:03:38;;;;;;;;;;;21.80;45.60;;;;;;5129059;27;19923;-58
2022/06/14 05:06:06;;;;;;;;;;;21.80;45.90;;;;;;5152864;27;19940;-55
2022/06/14 05:08:46;;;;;;;;;;;21.80;46.00;;;;;;5147230;27;19970;-58
2022/06/14 05:11:13;;;;;;;;;;;21.80;46.00;;;;;;5144819;27;19961;-58
2022/06/14 05:13:48;;;;;;;;;;;21.80;45.90;;;;;;5151928;27;19923;-56
2022/06/14 05:16:15;;;;;;;;;;;21.90;45.70;;;;;;5165465;27;19926;-57
2022/06/14 05:18:52;;;;;;;;;;;22.00;45.40;;;;;;5165581;27;20011;-53
2022/06/14 05:21:22;;;;;;;;;;;22.10;45.30;;;;;;5150670;27;20290;-57
2022/06/14 05:23:52;;;;;;;;;;;22.20;45.10;;;;;;5147099;27;19974;-57
2022/06/14 05:26:40;;;;;;;;;;;22.10;45.20;;;;;;5146780;27;19945;-58
2022/06/14 05:29:22;;;;;;;;;;;22.20;45.10;;;;;;5150063;27;20415;-56
2022/06/14 05:31:47;;;;;;;;;;;22.30;45.10;;;;;;5164708;27;20354;-57
2022/06/14 05:34:20;;;;;;;;;;;22.40;44.70;;;;;;5165086;27;19989;-58
2022/06/14 05:37:10;;;;;;;;;;;22.40;44.70;;;;;;5152089;27;19926;-57
2022/06/14 05:39:44;;;;;;;;;;;21.40;46.70;;;;;;5151288;27;19926;-57
2022/06/14 05:42:20;;;;;;;;;;;21.30;46.90;;;;;;5146710;27;19939;-56
2022/06/14 05:44:50;;;;;;;;;;;21.30;48.20;;;;;;5151864;27;20005;-55
2022/06/14 05:47:16;;;;;;;;;;;21.60;47.30;;;;;;5144230;27;19927;-58
2022/06/14 05:49:43;;;;;;;;;;;21.60;47.10;;;;;;5164400;27;19927;-56
2022/06/14 05:52:42;;;;;;;;;;;21.60;47.10;;;;;;5169458;27;19991;-58
2022/06/14 05:55:12;;;;;;;;;;;21.50;46.90;;;;;;5117364;27;19970;-60
2022/06/14 05:57:38;;;;;;;;;;;21.60;46.30;;;;;;5164973;27;19990;-58
2022/06/14 06:00:10;;;;;;;;;;;21.60;46.10;;;;;;5151914;27;19923;-57
2022/06/14 06:02:37;;;;;;;;;;;21.60;45.90;;;;;;5164967;27;20694;-59
2022/06/14 06:05:16;;;;;;;;;;;21.60;45.70;;;;;;5163297;27;19923;-57
2022/06/14 06:08:05;;;;;;;;;;;21.60;45.60;;;;;;5149226;27;20017;-59
2022/06/14 06:10:32;;;;;;;;;;;21.60;45.50;;;;;;5150506;27;20045;-59
2022/06/14 06:13:00;;;;;;;;;;;21.70;45.30;;;;;;5164744;27;20339;-60
2022/06/14 06:15:34;;;;;;;;;;;21.60;45.40;;;;;;5150107;27;19953;-59
2022/06/14 06:18:04;;;;;;;;;;;21.70;45.40;;;;;;5165045;27;19936;-59
2022/06/14 06:20:48;;;;;;;;;;;21.70;45.30;;;;;;5164601;27;20239;-59
2022/06/14 06:23:18;;;;;;;;;;;21.70;45.20;;;;;;5148415;27;20030;-57
2022/06/14 06:25:45;;;;;;;;;;;21.70;45.20;;;;;;5162981;27;19923;-59
2022/06/14 06:28:12;;;;;;;;;;;21.80;45.20;;;;;;5164088;27;19982;-59
2022/06/14 06:30:39;;;;;;;;;;;21.80;45.20;;;;;;5169735;27;19930;-59
2022/06/14 06:33:06;;;;;;;;;;;21.70;45.30;;;;;;5146036;27;19971;-59
2022/06/14 06:35:34;;;;;;;;;;;21.80;45.10;;;;;;5148939;27;20017;-57
2022/06/14 06:38:30;;;;;;;;;;;21.80;45.10;;;;;;5147873;27;19931;-58
2022/06/14 06:43:43;;;;;;;;;;;21.80;45.50;;;;;;5146954;27;19933;-60
2022/06/14 06:46:09;;;;;;;;;;;21.80;45.60;;;;;;5168920;27;19923;-59
2022/06/14 06:48:37;;;;;;;;;;;21.80;45.60;;;;;;5164164;27;19931;-59
2022/06/14 06:51:03;;;;;;;;;;;21.80;45.70;;;;;;5148335;27;20313;-58
2022/06/14 06:53:36;;;;;;;;;;;21.80;45.60;;;;;;5148575;27;19942;-58
2022/06/14 06:56:13;;;;;;;;;;;21.80;45.60;;;;;;5144420;27;20302;-58
2022/06/14 06:58:58;;;;;;;;;;;21.80;45.60;;;;;;5133537;27;20029;-58
2022/06/14 07:01:28;;;;;;;;;;;21.80;45.60;;;;;;5166891;27;19924;-59
2022/06/14 07:03:57;;;;;;;;;;;21.80;45.60;;;;;;5143440;27;20297;-60
2022/06/14 07:06:29;;;;;;;;;;;21.80;45.70;;;;;;5150451;27;19923;-59
2022/06/14 07:08:56;;;;;;;;;;;21.80;45.60;;;;;;5165818;27;19926;-57
2022/06/14 07:11:24;;;;;;;;;;;21.80;45.40;;;;;;5145826;27;19934;-59
2022/06/14 07:13:57;;;;;;;;;;;21.30;44.90;;;;;;5150824;27;19927;-58
2022/06/14 07:16:30;;;;;;;;;;;21.00;44.70;;;;;;5145438;27;19931;-59
2022/06/14 07:19:22;;;;;;;;;;;21.20;46.00;;;;;;5162090;27;20326;-59
2022/06/14 07:21:49;;;;;;;;;;;21.80;47.40;;;;;;5163062;27;19923;-56
2022/06/14 07:24:17;;;;;;;;;;;22.20;45.40;;;;;;5144131;27;19938;-59
2022/06/14 07:26:47;;;;;;;;;;;22.40;44.80;;;;;;5144114;27;20037;-55
2022/06/14 07:29:16;;;;;;;;;;;22.50;44.40;;;;;;5149947;27;19923;-56
2022/06/14 07:31:55;;;;;;;;;;;22.60;43.70;;;;;;5163002;27;19929;-58
2022/06/14 07:34:21;;;;;;;;;;;21.80;44.60;;;;;;5144323;27;19933;-57
2022/06/14 07:37:06;;;;;;;;;;;21.50;45.60;;;;;;5148430;27;20378;-57
2022/06/14 07:39:34;;;;;;;;;;;21.80;45.70;;;;;;5161716;27;19963;-57
2022/06/14 07:42:02;;;;;;;;;;;21.80;45.50;;;;;;5162291;27;19967;-58
2022/06/14 07:44:32;;;;;;;;;;;21.80;45.60;;;;;;5149543;27;19929;-58
2022/06/14 07:47:00;;;;;;;;;;;21.80;45.30;;;;;;5162802;27;19923;-57
2022/06/14 07:49:34;;;;;;;;;;;21.80;45.10;;;;;;5144246;27;19938;-58
2022/06/14 07:52:08;;;;;;;;;;;21.90;44.90;;;;;;5168265;27;20343;-57
2022/06/14 07:54:36;;;;;;;;;;;22.00;44.70;;;;;;5143155;27;19923;-59
2022/06/14 07:57:05;;;;;;;;;;;22.00;44.70;;;;;;5161041;27;20332;-59
2022/06/14 07:59:32;;;;;;;;;;;21.90;44.60;;;;;;5149045;27;19933;-58
2022/06/14 08:02:05;;;;;;;;;;;21.90;44.70;;;;;;5162640;27;20297;-58
2022/06/14 08:04:31;;;;;;;;;;;22.00;44.50;;;;;;5146447;27;19936;-57
2022/06/14 08:06:58;;;;;;;;;;;21.90;44.60;;;;;;5164193;27;20217;-59
2022/06/14 08:09:35;;;;;;;;;;;22.00;44.20;;;;;;5162624;27;19926;-57
2022/06/14 08:12:01;;;;;;;;;;;22.00;44.10;;;;;;5168064;27;19934;-60
2022/06/14 08:14:32;;;;;;;;;;;22.10;44.00;;;;;;5161813;27;19927;-58
2022/06/14 08:16:57;;;;;;;;;;;22.00;44.30;;;;;;5147684;27;19923;-59
2022/06/14 08:19:25;;;;;;;;;;;21.90;44.20;;;;;;5172136;27;19936;-59
2022/06/14 08:21:52;;;;;;;;;;;22.00;44.10;;;;;;5166932;27;19926;-58
2022/06/14 08:24:18;;;;;;;;;;;22.00;43.80;;;;;;5148130;27;19923;-59
2022/06/14 08:26:47;;;;;;;;;;;22.00;43.50;;;;;;5153249;27;21280;-59
2022/06/14 08:29:27;;;;;;;;;;;22.00;43.40;;;;;;5166818;27;20111;-58
2022/06/14 08:31:55;;;;;;;;;;;22.10;43.20;;;;;;5146502;27;20021;-58
2022/06/14 08:34:25;;;;;;;;;;;22.00;43.00;;;;;;5151882;27;20366;-58
2022/06/14 08:37:02;;;;;;;;;;;20.90;44.90;;;;;;5146119;27;20017;-60
2022/06/14 08:39:29;;;;;;;;;;;20.10;47.70;;;;;;5150376;27;19922;-57
2022/06/14 08:42:14;;;;;;;;;;;21.10;45.50;;;;;;5152504;27;20453;-59
2022/06/14 08:45:00;;;;;;;;;;;21.50;44.40;;;;;;5166747;27;19950;-59
2022/06/14 08:47:39;;;;;;;;;;;21.70;43.80;;;;;;5166072;27;19923;-58
2022/06/14 08:50:18;;;;;;;;;;;21.70;43.80;;;;;;5170488;27;19945;-59
2022/06/14 08:52:53;;;;;;;;;;;21.80;43.80;;;;;;5146623;27;20350;-59
2022/06/14 08:55:31;;;;;;;;;;;21.80;43.40;;;;;;5166037;27;20464;-59
2022/06/14 08:58:10;;;;;;;;;;;21.80;43.20;;;;;;5171425;27;19923;-58
2022/06/14 09:00:40;;;;;;;;;;;22.00;43.00;;;;;;5147914;27;20018;-59
2022/06/14 09:03:25;;;;;;;;;;;22.00;43.00;;;;;;5147947;27;20321;-60
2022/06/14 09:05:51;;;;;;;;;;;22.00;42.80;;;;;;5171735;27;20221;-56
2022/06/14 09:08:22;;;;;;;;;;;21.90;42.90;;;;;;5165235;27;19926;-59
2022/06/14 09:10:57;;;;;;;;;;;22.00;42.90;;;;;;5165098;27;19922;-59
2022/06/14 09:13:23;;;;;;;;;;;22.00;42.90;;;;;;5170799;27;20403;-58
2022/06/14 09:15:48;;;;;;;;;;;22.00;42.80;;;;;;5166115;27;20964;-60
2022/06/14 09:18:14;;;;;;;;;;;22.10;42.70;;;;;;5166450;27;19927;-61
2022/06/14 09:20:55;;;;;;;;;;;21.60;43.40;;;;;;5171301;27;19922;-59
2022/06/14 09:23:40;;;;;;;;;;;19.90;46.80;;;;;;5166255;27;20559;-59
2022/06/14 09:26:24;;;;;;;;;;;20.80;45.90;;;;;;5165053;27;20043;-58
2022/06/14 09:29:11;;;;;;;;;;;21.40;44.10;;;;;;5169065;27;19937;-57
2022/06/14 09:31:36;;;;;;;;;;;21.70;43.60;;;;;;5165303;27;19927;-58
2022/06/14 09:34:12;;;;;;;;;;;21.30;43.50;;;;;;5165774;27;19952;-57
2022/06/14 09:36:57;;;;;;;;;;;21.10;43.20;;;;;;5152414;27;19967;-56
2022/06/14 09:39:26;;;;;;;;;;;21.30;44.40;;;;;;5165627;27;20017;-58
2022/06/14 09:42:01;;;;;;;;;;;22.00;42.90;;;;;;5147982;27;19930;-58
2022/06/14 09:44:33;;;;;;;;;;;20.90;44.70;;;;;;5150537;27;20017;-56
2022/06/14 09:47:16;;;;;;;;;;;20.70;45.00;;;;;;5165971;27;20876;-57
2022/06/14 09:49:49;;;;;;;;;;;20.30;45.30;;;;;;5148733;27;20005;-58
2022/06/14 09:52:15;;;;;;;;;;;20.10;45.80;;;;;;5135370;27;19927;-49
2022/06/14 09:54:55;;;;;;;;;;;20.20;45.80;;;;;;5165039;27;20392;-50
2022/06/14 09:57:28;;;;;;;;;;;20.20;45.40;;;;;;5146329;27;19923;-49
2022/06/14 10:00:13;;;;;;;;;;;20.00;45.50;;;;;;5170137;27;19958;-48
2022/06/14 10:02:47;;;;;;;;;;;20.10;45.50;;;;;;5164539;27;20029;-49
2022/06/14 10:05:13;;;;;;;;;;;20.20;45.40;;;;;;5162306;27;19926;-47
2022/06/14 10:07:39;;;;;;;;;;;20.10;45.40;;;;;;5169473;27;20296;-49
2022/06/14 10:10:14;;;;;;;;;;;20.00;45.70;;;;;;5164692;27;19927;-48
2022/06/14 10:12:58;;;;;;;;;;;19.90;45.80;;;;;;5164857;27;19953;-49
2022/06/14 10:15:33;;;;;;;;;;;19.90;46.30;;;;;;5170146;27;20405;-48
2022/06/14 10:17:59;;;;;;;;;;;19.90;46.30;;;;;;5146624;27;19923;-48
2022/06/14 10:20:38;;;;;;;;;;;20.10;45.80;;;;;;5164993;27;20280;-48
2022/06/14 10:23:19;;;;;;;;;;;19.80;46.50;;;;;;5149176;27;20346;-48
2022/06/14 10:28:39;;;;;;;;;;;19.80;46.00;;;;;;5164878;27;20017;-49
2022/06/14 10:31:24;;;;;;;;;;;20.10;45.30;;;;;;5149945;27;19945;-48
2022/06/14 10:33:57;;;;;;;;;;;20.10;45.40;;;;;;5146118;27;19929;-49
2022/06/14 10:36:33;;;;;;;;;;;20.00;46.00;;;;;;5127609;27;19934;-48
2022/06/14 10:39:01;;;;;;;;;;;19.80;46.70;;;;;;5150863;27;19923;-45
2022/06/14 10:41:45;;;;;;;;;;;19.80;47.20;;;;;;5143252;27;19931;-48
2022/06/14 10:44:20;;;;;;;;;;;21.20;45.00;;;;;;5163676;27;20352;-50
2022/06/14 10:47:09;;;;;;;;;;;21.80;43.40;;;;;;5169459;27;19927;-47
2022/06/14 10:49:41;;;;;;;;;;;20.50;45.80;;;;;;5118432;27;19923;-50
2022/06/14 10:52:12;;;;;;;;;;;20.10;46.60;;;;;;5164717;27;19926;-48
2022/06/14 10:54:57;;;;;;;;;;;20.00;46.90;;;;;;5169577;27;19933;-48
2022/06/14 10:57:36;;;;;;;;;;;19.90;46.70;;;;;;5168088;27;20293;-49
2022/06/14 11:00:06;;;;;;;;;;;19.90;46.50;;;;;;5162169;27;19927;-49
2022/06/14 11:02:32;;;;;;;;;;;19.90;46.30;;;;;;5168648;27;19962;-46
2022/06/14 11:05:16;;;;;;;;;;;19.80;46.50;;;;;;5163911;27;19934;-48
2022/06/14 11:07:42;;;;;;;;;;;20.10;45.70;;;;;;5163826;27;20048;-51
2022/06/14 11:10:43;;;;;;;;;;;19.90;45.90;;;;;;5169362;27;20334;-48
2022/06/14 11:13:09;;;;;;;;;;;20.10;45.50;;;;;;5063908;28;19924;-46
2022/06/14 11:15:38;;;;;;;;;;;19.70;46.90;;;;;;5141354;27;20361;-51
2022/06/14 11:18:22;;;;;;;;;;;21.00;45.10;;;;;;5147490;27;19930;-55
2022/06/14 11:20:58;;;;;;;;;;;22.00;43.00;;;;;;5168324;27;20373;-48
2022/06/14 11:23:29;;;;;;;;;;;20.70;45.20;;;;;;5164193;27;19974;-48
2022/06/14 11:26:02;;;;;;;;;;;20.30;45.90;;;;;;5165904;27;19974;-55
2022/06/14 11:28:28;;;;;;;;;;;20.10;45.90;;;;;;5150526;27;20443;-48
2022/06/14 11:31:01;;;;;;;;;;;20.00;46.10;;;;;;5164061;27;19930;-49
2022/06/14 11:33:37;;;;;;;;;;;20.00;46.40;;;;;;5148688;27;19947;-47
2022/06/14 11:36:22;;;;;;;;;;;19.90;46.40;;;;;;5145197;27;19922;-49
2022/06/14 11:39:06;;;;;;;;;;;20.00;46.10;;;;;;5162823;27;19935;-46
2022/06/14 11:41:34;;;;;;;;;;;20.00;46.10;;;;;;5163198;27;20009;-46
2022/06/14 11:44:13;;;;;;;;;;;19.90;45.80;;;;;;5149903;27;19923;-46
2022/06/14 11:46:58;;;;;;;;;;;20.00;45.60;;;;;;5140969;27;19927;-52
2022/06/14 11:49:24;;;;;;;;;;;20.20;45.10;;;;;;5162751;27;19931;-50
2022/06/14 11:51:58;;;;;;;;;;;20.20;45.30;;;;;;5149755;27;19923;-49
2022/06/14 11:54:25;;;;;;;;;;;20.00;45.80;;;;;;5142691;27;19940;-53
2022/06/14 11:57:10;;;;;;;;;;;20.00;46.00;;;;;;5164498;27;20298;-56
2022/06/14 11:59:43;;;;;;;;;;;20.00;45.20;;;;;;5167672;27;19923;-48
2022/06/14 12:02:28;;;;;;;;;;;19.80;44.90;;;;;;5144429;27;19933;-49
2022/06/14 12:04:58;;;;;;;;;;;19.90;44.80;;;;;;5162860;27;19927;-47
2022/06/14 12:07:31;;;;;;;;;;;19.80;45.00;;;;;;5168421;27;19923;-50
2022/06/14 12:10:03;;;;;;;;;;;20.10;44.30;;;;;;5162861;27;19975;-49
2022/06/14 12:12:35;;;;;;;;;;;20.00;44.70;;;;;;5161503;27;20396;-50
2022/06/14 12:15:02;;;;;;;;;;;19.80;45.40;;;;;;5166707;27;19950;-46
2022/06/14 12:17:28;;;;;;;;;;;19.80;45.50;;;;;;5162820;27;20025;-46
2022/06/14 12:20:01;;;;;;;;;;;19.90;45.50;;;;;;5168094;27;19923;-50
2022/06/14 12:22:33;;;;;;;;;;;20.00;45.00;;;;;;5164389;27;19955;-48
2022/06/14 12:27:45;;;;;;;;;;;19.90;45.10;;;;;;5163801;27;19923;-57
2022/06/14 12:30:12;;;;;;;;;;;19.90;44.70;;;;;;5144953;27;19923;-52
2022/06/14 12:33:04;;;;;;;;;;;20.20;44.30;;;;;;5142007;27;19937;-51
2022/06/14 12:35:30;;;;;;;;;;;20.20;44.40;;;;;;5126172;27;19933;-57
2022/06/14 12:38:01;;;;;;;;;;;20.00;44.70;;;;;;5164760;27;20021;-48
2022/06/14 12:40:27;;;;;;;;;;;19.90;44.90;;;;;;5145272;27;19929;-47
2022/06/14 12:42:56;;;;;;;;;;;20.50;44.10;;;;;;5167926;27;20002;-49
2022/06/14 12:45:23;;;;;;;;;;;21.70;42.20;;;;;;5163218;27;20414;-48
2022/06/14 12:48:05;;;;;;;;;;;21.40;41.80;;;;;;5144613;27;20278;-50
2022/06/14 12:50:32;;;;;;;;;;;20.50;43.60;;;;;;5166086;27;19933;-50
2022/06/14 12:53:04;;;;;;;;;;;20.20;44.50;;;;;;5144315;27;19934;-51
2022/06/14 12:55:33;;;;;;;;;;;19.90;45.10;;;;;;5145098;27;19971;-49
2022/06/14 12:58:04;;;;;;;;;;;19.90;44.90;;;;;;5149532;27;19958;-49
2022/06/14 13:00:30;;;;;;;;;;;19.80;45.20;;;;;;5165763;27;19937;-49
2022/06/14 13:02:57;;;;;;;;;;;20.10;44.70;;;;;;5167770;27;20312;-49
2022/06/14 13:05:28;;;;;;;;;;;20.00;45.00;;;;;;5153077;27;20009;-47
2022/06/14 13:07:53;;;;;;;;;;;19.90;45.20;;;;;;5146694;27;19929;-52
2022/06/14 13:10:24;;;;;;;;;;;20.00;44.90;;;;;;5170226;27;19923;-54
2022/06/14 13:12:54;;;;;;;;;;;20.20;44.60;;;;;;5149739;27;19923;-51
2022/06/14 13:15:26;;;;;;;;;;;20.20;44.80;;;;;;5149225;27;20017;-48
2022/06/14 13:18:12;;;;;;;;;;;20.10;44.90;;;;;;5171630;27;19966;-50
2022/06/14 13:20:40;;;;;;;;;;;20.00;44.90;;;;;;5170314;27;20013;-47
2022/06/14 13:23:18;;;;;;;;;;;20.10;44.80;;;;;;5167806;27;19927;-47
2022/06/14 13:26:03;;;;;;;;;;;20.10;44.70;;;;;;5151724;27;19931;-53
2022/06/14 13:28:46;;;;;;;;;;;20.20;44.80;;;;;;5170650;27;19923;-47
2022/06/14 13:31:24;;;;;;;;;;;20.20;45.10;;;;;;5147470;27;20023;-48
2022/06/14 13:33:51;;;;;;;;;;;20.30;44.90;;;;;;5167637;27;20017;-47
2022/06/14 13:36:17;;;;;;;;;;;20.40;44.60;;;;;;5152730;27;19933;-47
2022/06/14 13:38:55;;;;;;;;;;;20.30;44.90;;;;;;5167746;27;19923;-49
2022/06/14 13:42:03;;;;;;;;;;;20.30;45.10;;;;;;5169724;27;20107;-52
2022/06/14 13:44:49;;;;;;;;;;;20.20;45.20;;;;;;5064738;28;19947;-50
2022/06/14 13:47:16;;;;;;;;;;;20.30;45.20;;;;;;5021355;28;19932;-48
2022/06/14 13:49:48;;;;;;;;;;;20.30;45.00;;;;;;5107564;27;19927;-51
2022/06/14 13:52:22;;;;;;;;;;;20.30;45.10;;;;;;5171245;27;19972;-47
2022/06/14 13:54:50;;;;;;;;;;;20.30;44.80;;;;;;5148626;27;19926;-47
2022/06/14 13:57:28;;;;;;;;;;;20.10;44.70;;;;;;5131502;27;20231;-48
2022/06/14 13:59:56;;;;;;;;;;;20.10;44.60;;;;;;5171009;27;20030;-47
2022/06/14 14:02:28;;;;;;;;;;;20.10;44.20;;;;;;5166254;27;20018;-49
2022/06/14 14:05:00;;;;;;;;;;;20.20;44.20;;;;;;5165999;27;20013;-48
2022/06/14 14:07:29;;;;;;;;;;;20.30;44.40;;;;;;5151854;27;20358;-48
2022/06/14 14:09:54;;;;;;;;;;;20.30;44.10;;;;;;5165765;27;20050;-52
2022/06/14 14:12:23;;;;;;;;;;;20.40;43.90;;;;;;5167103;27;20362;-56
2022/06/14 14:14:56;;;;;;;;;;;20.40;44.20;;;;;;5150194;27;19938;-47
2022/06/14 14:17:24;;;;;;;;;;;20.30;44.30;;;;;;5146580;27;20014;-49
2022/06/14 14:19:59;;;;;;;;;;;20.40;44.50;;;;;;5170011;27;19923;-52
2022/06/14 14:22:29;;;;;;;;;;;20.30;44.90;;;;;;5162970;27;19926;-53
2022/06/14 14:24:56;;;;;;;;;;;20.30;44.50;;;;;;5164028;27;19955;-47
2022/06/14 14:27:45;;;;;;;;;;;20.20;44.30;;;;;;5150989;27;20030;-52
2022/06/14 14:30:13;;;;;;;;;;;20.10;44.40;;;;;;5152240;27;20106;-48
2022/06/14 14:32:51;;;;;;;;;;;20.20;44.00;;;;;;5146076;27;20381;-48
2022/06/14 14:35:19;;;;;;;;;;;20.20;44.10;;;;;;5169738;27;19974;-48
2022/06/14 14:37:47;;;;;;;;;;;20.30;44.00;;;;;;5164413;27;19936;-49
2022/06/14 14:40:19;;;;;;;;;;;20.30;44.30;;;;;;5141863;27;20104;-50
2022/06/14 14:42:44;;;;;;;;;;;20.20;44.10;;;;;;5168749;27;19931;-47
2022/06/14 14:45:12;;;;;;;;;;;20.20;43.90;;;;;;5163782;27;19923;-49
2022/06/14 14:47:40;;;;;;;;;;;20.10;43.90;;;;;;5145390;27;20395;-49
2022/06/14 14:50:26;;;;;;;;;;;20.10;43.90;;;;;;5150837;27;19970;-48
2022/06/14 14:52:57;;;;;;;;;;;20.10;44.20;;;;;;5110751;27;19923;-49
2022/06/14 14:55:25;;;;;;;;;;;20.30;44.00;;;;;;5145145;27;19926;-48
2022/06/14 14:58:03;;;;;;;;;;;20.30;44.00;;;;;;5167502;27;19930;-50
2022/06/14 15:06:22;;;;;;;;;;;20.30;44.00;;;;;;5152108;27;19922;-51